sensor_id;sensor_type;location;lat;lon;timestamp;P1;durP1;ratioP1;P2;durP2;ratioP2
6519;SDS011;3293;51.690;5.982;2023-02-13T00:03:10;49.33;;;27.80;;
6519;SDS011;3293;51.690;5.982;2023-02-13T00:08:11;48.70;;;28.60;;
6519;SDS011;3293;51.690;5.982;2023-02-13T00:13:11;55.27;;;30.27;;
6519;SDS011;3293;51.690;5.982;2023-02-13T00:18:11;52.10;;;28.87;;
6519;SDS011;3293;51.690;5.982;2023-02-13T00:23:11;49.03;;;27.07;;
6519;SDS011;3293;51.690;5.982;2023-02-13T00:28:11;51.97;;;28.73;;
6519;SDS011;3293;51.690;5.982;2023-02-13T00:33:12;50.20;;;28.30;;
6519;SDS011;3293;51.690;5.982;2023-02-13T00:38:13;46.53;;;27.80;;
6519;SDS011;3293;51.690;5.982;2023-02-13T00:43:12;49.57;;;29.57;;
6519;SDS011;3293;51.690;5.982;2023-02-13T00:48:12;53.10;;;30.13;;
6519;SDS011;3293;51.690;5.982;2023-02-13T00:53:12;52.90;;;28.63;;
6519;SDS011;3293;51.690;5.982;2023-02-13T00:58:12;51.77;;;30.87;;
6519;SDS011;3293;51.690;5.982;2023-02-13T01:03:13;51.07;;;29.67;;
6519;SDS011;3293;51.690;5.982;2023-02-13T01:08:15;48.67;;;27.67;;
6519;SDS011;3293;51.690;5.982;2023-02-13T01:13:16;53.23;;;29.37;;
6519;SDS011;3293;51.690;5.982;2023-02-13T01:18:18;47.77;;;28.77;;
6519;SDS011;3293;51.690;5.982;2023-02-13T01:23:18;50.80;;;30.03;;
6519;SDS011;3293;51.690;5.982;2023-02-13T01:28:18;46.30;;;28.40;;
6519;SDS011;3293;51.690;5.982;2023-02-13T01:33:18;47.97;;;29.07;;
6519;SDS011;3293;51.690;5.982;2023-02-13T01:38:18;51.17;;;30.67;;
6519;SDS011;3293;51.690;5.982;2023-02-13T01:43:19;52.47;;;29.60;;
6519;SDS011;3293;51.690;5.982;2023-02-13T01:48:25;50.17;;;29.13;;
6519;SDS011;3293;51.690;5.982;2023-02-13T01:53:26;49.13;;;27.53;;
6519;SDS011;3293;51.690;5.982;2023-02-13T01:58:33;47.77;;;27.93;;
6519;SDS011;3293;51.690;5.982;2023-02-13T02:03:41;44.80;;;27.10;;
6519;SDS011;3293;51.690;5.982;2023-02-13T02:08:42;49.87;;;27.60;;
6519;SDS011;3293;51.690;5.982;2023-02-13T02:13:43;47.30;;;28.40;;
6519;SDS011;3293;51.690;5.982;2023-02-13T02:18:43;50.80;;;28.80;;
6519;SDS011;3293;51.690;5.982;2023-02-13T02:50:38;69.67;;;38.70;;
6519;SDS011;3293;51.690;5.982;2023-02-13T02:55:46;58.83;;;32.70;;
6519;SDS011;3293;51.690;5.982;2023-02-13T03:00:59;52.70;;;30.90;;
6519;SDS011;3293;51.690;5.982;2023-02-13T03:06:22;53.90;;;32.00;;
6519;SDS011;3293;51.690;5.982;2023-02-13T03:11:27;53.97;;;31.57;;
6519;SDS011;3293;51.690;5.982;2023-02-13T03:16:45;52.73;;;30.70;;
6519;SDS011;3293;51.690;5.982;2023-02-13T03:22:07;50.30;;;29.47;;
6519;SDS011;3293;51.690;5.982;2023-02-13T03:38:54;55.47;;;30.50;;
6519;SDS011;3293;51.690;5.982;2023-02-13T03:43:46;48.83;;;28.43;;
6519;SDS011;3293;51.690;5.982;2023-02-13T03:49:09;49.57;;;29.27;;
6519;SDS011;3293;51.690;5.982;2023-02-13T03:54:42;45.20;;;27.40;;
6519;SDS011;3293;51.690;5.982;2023-02-13T04:00:15;44.57;;;28.03;;
6519;SDS011;3293;51.690;5.982;2023-02-13T04:05:17;46.00;;;26.93;;
6519;SDS011;3293;51.690;5.982;2023-02-13T04:10:23;46.03;;;26.93;;
6519;SDS011;3293;51.690;5.982;2023-02-13T04:15:26;50.80;;;28.43;;
6519;SDS011;3293;51.690;5.982;2023-02-13T04:20:39;45.17;;;26.77;;
6519;SDS011;3293;51.690;5.982;2023-02-13T04:25:40;47.97;;;29.07;;
6519;SDS011;3293;51.690;5.982;2023-02-13T04:30:42;45.70;;;26.43;;
6519;SDS011;3293;51.690;5.982;2023-02-13T04:35:42;41.17;;;26.17;;
6519;SDS011;3293;51.690;5.982;2023-02-13T04:40:42;44.10;;;26.37;;
6519;SDS011;3293;51.690;5.982;2023-02-13T04:45:42;47.17;;;28.97;;
6519;SDS011;3293;51.690;5.982;2023-02-13T04:50:46;44.87;;;27.80;;
6519;SDS011;3293;51.690;5.982;2023-02-13T04:55:46;43.70;;;27.20;;
6519;SDS011;3293;51.690;5.982;2023-02-13T05:00:47;49.43;;;28.27;;
6519;SDS011;3293;51.690;5.982;2023-02-13T05:05:47;45.07;;;25.33;;
6519;SDS011;3293;51.690;5.982;2023-02-13T05:10:47;45.33;;;27.80;;
6519;SDS011;3293;51.690;5.982;2023-02-13T05:15:48;40.30;;;25.33;;
6519;SDS011;3293;51.690;5.982;2023-02-13T05:20:48;42.93;;;24.70;;
6519;SDS011;3293;51.690;5.982;2023-02-13T05:26:07;35.97;;;22.37;;
6519;SDS011;3293;51.690;5.982;2023-02-13T05:31:07;36.83;;;23.27;;
6519;SDS011;3293;51.690;5.982;2023-02-13T05:36:07;35.83;;;23.03;;
6519;SDS011;3293;51.690;5.982;2023-02-13T05:41:07;41.57;;;23.77;;
6519;SDS011;3293;51.690;5.982;2023-02-13T05:46:08;40.37;;;23.20;;
6519;SDS011;3293;51.690;5.982;2023-02-13T05:51:08;38.63;;;21.70;;
6519;SDS011;3293;51.690;5.982;2023-02-13T05:56:08;39.77;;;23.23;;
6519;SDS011;3293;51.690;5.982;2023-02-13T06:01:08;42.10;;;23.87;;
6519;SDS011;3293;51.690;5.982;2023-02-13T06:06:08;35.60;;;21.70;;
6519;SDS011;3293;51.690;5.982;2023-02-13T06:11:08;36.03;;;22.10;;
6519;SDS011;3293;51.690;5.982;2023-02-13T06:16:09;39.00;;;22.63;;
6519;SDS011;3293;51.690;5.982;2023-02-13T06:21:10;36.30;;;22.50;;
6519;SDS011;3293;51.690;5.982;2023-02-13T06:26:09;36.17;;;22.23;;
6519;SDS011;3293;51.690;5.982;2023-02-13T06:31:09;38.23;;;22.03;;
6519;SDS011;3293;51.690;5.982;2023-02-13T06:36:09;38.37;;;22.60;;
6519;SDS011;3293;51.690;5.982;2023-02-13T06:41:09;37.03;;;21.77;;
6519;SDS011;3293;51.690;5.982;2023-02-13T06:46:09;36.37;;;22.37;;
6519;SDS011;3293;51.690;5.982;2023-02-13T06:51:09;39.07;;;22.00;;
6519;SDS011;3293;51.690;5.982;2023-02-13T06:56:09;36.07;;;22.07;;
6519;SDS011;3293;51.690;5.982;2023-02-13T07:01:09;39.33;;;21.70;;
6519;SDS011;3293;51.690;5.982;2023-02-13T07:06:09;38.83;;;22.03;;
6519;SDS011;3293;51.690;5.982;2023-02-13T07:11:19;41.23;;;23.70;;
6519;SDS011;3293;51.690;5.982;2023-02-13T07:16:20;38.30;;;22.83;;
6519;SDS011;3293;51.690;5.982;2023-02-13T07:21:20;44.60;;;24.50;;
6519;SDS011;3293;51.690;5.982;2023-02-13T07:26:19;48.53;;;26.00;;
6519;SDS011;3293;51.690;5.982;2023-02-13T07:31:19;45.50;;;26.13;;
6519;SDS011;3293;51.690;5.982;2023-02-13T07:36:19;50.07;;;25.93;;
6519;SDS011;3293;51.690;5.982;2023-02-13T07:41:19;49.97;;;24.23;;
6519;SDS011;3293;51.690;5.982;2023-02-13T07:46:19;44.33;;;24.77;;
6519;SDS011;3293;51.690;5.982;2023-02-13T07:51:19;41.07;;;24.27;;
6519;SDS011;3293;51.690;5.982;2023-02-13T07:56:23;45.73;;;25.20;;
6519;SDS011;3293;51.690;5.982;2023-02-13T08:01:23;47.97;;;25.90;;
6519;SDS011;3293;51.690;5.982;2023-02-13T08:06:23;41.70;;;23.97;;
6519;SDS011;3293;51.690;5.982;2023-02-13T08:11:27;40.93;;;24.93;;
6519;SDS011;3293;51.690;5.982;2023-02-13T08:16:49;39.30;;;24.43;;
6519;SDS011;3293;51.690;5.982;2023-02-13T08:21:49;37.33;;;24.27;;
6519;SDS011;3293;51.690;5.982;2023-02-13T08:26:49;32.50;;;23.20;;
6519;SDS011;3293;51.690;5.982;2023-02-13T08:31:49;36.13;;;22.70;;
6519;SDS011;3293;51.690;5.982;2023-02-13T08:36:49;35.40;;;23.37;;
6519;SDS011;3293;51.690;5.982;2023-02-13T08:41:49;29.37;;;20.70;;
6519;SDS011;3293;51.690;5.982;2023-02-13T08:46:49;30.17;;;21.17;;
6519;SDS011;3293;51.690;5.982;2023-02-13T08:51:49;33.63;;;21.23;;
6519;SDS011;3293;51.690;5.982;2023-02-13T08:56:49;29.97;;;21.17;;
6519;SDS011;3293;51.690;5.982;2023-02-13T09:01:49;29.07;;;19.90;;
6519;SDS011;3293;51.690;5.982;2023-02-13T09:06:49;26.33;;;19.43;;
6519;SDS011;3293;51.690;5.982;2023-02-13T09:11:49;26.90;;;18.87;;
6519;SDS011;3293;51.690;5.982;2023-02-13T09:16:50;27.97;;;19.63;;
6519;SDS011;3293;51.690;5.982;2023-02-13T09:21:50;26.33;;;18.93;;
6519;SDS011;3293;51.690;5.982;2023-02-13T09:26:51;28.07;;;19.67;;
6519;SDS011;3293;51.690;5.982;2023-02-13T09:31:51;27.87;;;18.37;;
6519;SDS011;3293;51.690;5.982;2023-02-13T09:36:51;26.90;;;19.60;;
6519;SDS011;3293;51.690;5.982;2023-02-13T09:41:52;27.57;;;20.50;;
6519;SDS011;3293;51.690;5.982;2023-02-13T09:46:53;27.17;;;18.27;;
6519;SDS011;3293;51.690;5.982;2023-02-13T09:51:54;26.63;;;18.53;;
6519;SDS011;3293;51.690;5.982;2023-02-13T10:19:07;24.83;;;18.93;;
6519;SDS011;3293;51.690;5.982;2023-02-13T10:24:30;25.83;;;17.73;;
6519;SDS011;3293;51.690;5.982;2023-02-13T10:35:17;26.77;;;17.63;;
6519;SDS011;3293;51.690;5.982;2023-02-13T10:40:17;23.83;;;17.60;;
6519;SDS011;3293;51.690;5.982;2023-02-13T10:45:24;24.37;;;18.43;;
6519;SDS011;3293;51.690;5.982;2023-02-13T10:50:55;24.57;;;17.03;;
6519;SDS011;3293;51.690;5.982;2023-02-13T10:56:19;23.93;;;17.37;;
6519;SDS011;3293;51.690;5.982;2023-02-13T11:06:42;21.77;;;16.63;;
6519;SDS011;3293;51.690;5.982;2023-02-13T11:11:49;21.40;;;16.03;;
6519;SDS011;3293;51.690;5.982;2023-02-13T11:21:57;23.07;;;17.60;;
6519;SDS011;3293;51.690;5.982;2023-02-13T11:27:02;27.00;;;18.37;;
6519;SDS011;3293;51.690;5.982;2023-02-13T11:37:23;25.03;;;18.07;;
6519;SDS011;3293;51.690;5.982;2023-02-13T11:42:29;23.23;;;17.60;;
6519;SDS011;3293;51.690;5.982;2023-02-13T11:47:40;24.00;;;18.80;;
6519;SDS011;3293;51.690;5.982;2023-02-13T11:52:41;24.67;;;18.20;;
6519;SDS011;3293;51.690;5.982;2023-02-13T11:57:43;24.17;;;16.97;;
6519;SDS011;3293;51.690;5.982;2023-02-13T12:08:20;22.63;;;17.07;;
6519;SDS011;3293;51.690;5.982;2023-02-13T12:13:22;26.63;;;17.63;;
6519;SDS011;3293;51.690;5.982;2023-02-13T12:18:28;22.20;;;17.83;;
6519;SDS011;3293;51.690;5.982;2023-02-13T13:12:33;22.40;;;16.27;;
6519;SDS011;3293;51.690;5.982;2023-02-13T13:28:18;19.13;;;15.67;;
6519;SDS011;3293;51.690;5.982;2023-02-13T13:33:41;21.63;;;16.47;;
6519;SDS011;3293;51.690;5.982;2023-02-13T13:38:51;28.33;;;19.20;;
6519;SDS011;3293;51.690;5.982;2023-02-13T13:44:15;23.97;;;15.43;;
6519;SDS011;3293;51.690;5.982;2023-02-13T13:54:34;20.93;;;14.57;;
6519;SDS011;3293;51.690;5.982;2023-02-13T14:04:38;20.53;;;14.00;;
6519;SDS011;3293;51.690;5.982;2023-02-13T14:09:42;19.53;;;14.90;;
6519;SDS011;3293;51.690;5.982;2023-02-13T14:14:43;17.73;;;13.83;;
6519;SDS011;3293;51.690;5.982;2023-02-13T14:19:45;19.03;;;14.37;;
6519;SDS011;3293;51.690;5.982;2023-02-13T14:24:50;19.53;;;13.77;;
6519;SDS011;3293;51.690;5.982;2023-02-13T14:30:24;18.80;;;13.73;;
6519;SDS011;3293;51.690;5.982;2023-02-13T14:35:27;22.10;;;15.37;;
6519;SDS011;3293;51.690;5.982;2023-02-13T14:40:43;19.07;;;14.70;;
6519;SDS011;3293;51.690;5.982;2023-02-13T14:45:53;18.97;;;14.37;;
6519;SDS011;3293;51.690;5.982;2023-02-13T14:51:03;17.50;;;13.50;;
6519;SDS011;3293;51.690;5.982;2023-02-13T14:56:05;20.40;;;14.77;;
6519;SDS011;3293;51.690;5.982;2023-02-13T15:06:32;20.00;;;13.73;;
6519;SDS011;3293;51.690;5.982;2023-02-13T15:11:41;22.67;;;15.03;;
6519;SDS011;3293;51.690;5.982;2023-02-13T15:16:42;20.33;;;15.10;;
6519;SDS011;3293;51.690;5.982;2023-02-13T15:21:46;18.10;;;14.33;;
6519;SDS011;3293;51.690;5.982;2023-02-13T15:26:59;19.67;;;14.17;;
6519;SDS011;3293;51.690;5.982;2023-02-13T15:32:15;17.30;;;13.73;;
6519;SDS011;3293;51.690;5.982;2023-02-13T15:37:38;19.83;;;15.27;;
6519;SDS011;3293;51.690;5.982;2023-02-13T15:42:37;22.37;;;15.23;;
6519;SDS011;3293;51.690;5.982;2023-02-13T15:47:38;23.10;;;15.87;;
6519;SDS011;3293;51.690;5.982;2023-02-13T15:52:39;25.40;;;16.07;;
6519;SDS011;3293;51.690;5.982;2023-02-13T15:57:39;22.37;;;15.00;;
6519;SDS011;3293;51.690;5.982;2023-02-13T16:02:41;21.20;;;14.83;;
6519;SDS011;3293;51.690;5.982;2023-02-13T16:12:51;25.33;;;13.93;;
6519;SDS011;3293;51.690;5.982;2023-02-13T16:17:52;25.40;;;15.20;;
6519;SDS011;3293;51.690;5.982;2023-02-13T16:27:58;23.17;;;15.23;;
6519;SDS011;3293;51.690;5.982;2023-02-13T16:43:51;23.60;;;15.83;;
6519;SDS011;3293;51.690;5.982;2023-02-13T16:49:03;23.50;;;14.80;;
6519;SDS011;3293;51.690;5.982;2023-02-13T17:04:48;23.53;;;15.03;;
6519;SDS011;3293;51.690;5.982;2023-02-13T17:09:57;23.17;;;14.90;;
6519;SDS011;3293;51.690;5.982;2023-02-13T17:15:21;23.40;;;16.90;;
6519;SDS011;3293;51.690;5.982;2023-02-13T17:20:24;25.97;;;17.37;;
6519;SDS011;3293;51.690;5.982;2023-02-13T17:30:29;23.90;;;16.80;;
6519;SDS011;3293;51.690;5.982;2023-02-13T17:35:31;30.47;;;16.27;;
6519;SDS011;3293;51.690;5.982;2023-02-13T17:40:31;28.37;;;17.00;;
6519;SDS011;3293;51.690;5.982;2023-02-13T17:45:32;34.57;;;17.57;;
6519;SDS011;3293;51.690;5.982;2023-02-13T17:50:33;26.80;;;17.03;;
6519;SDS011;3293;51.690;5.982;2023-02-13T17:55:33;27.67;;;16.83;;
6519;SDS011;3293;51.690;5.982;2023-02-13T18:00:33;28.43;;;16.67;;
6519;SDS011;3293;51.690;5.982;2023-02-13T18:05:33;22.30;;;15.87;;
6519;SDS011;3293;51.690;5.982;2023-02-13T18:10:34;26.53;;;18.27;;
6519;SDS011;3293;51.690;5.982;2023-02-13T18:15:40;26.60;;;16.70;;
6519;SDS011;3293;51.690;5.982;2023-02-13T18:20:42;29.73;;;18.13;;
6519;SDS011;3293;51.690;5.982;2023-02-13T18:25:42;33.57;;;18.80;;
6519;SDS011;3293;51.690;5.982;2023-02-13T18:30:42;28.27;;;19.13;;
6519;SDS011;3293;51.690;5.982;2023-02-13T18:35:42;30.57;;;19.33;;
6519;SDS011;3293;51.690;5.982;2023-02-13T18:40:42;32.60;;;20.77;;
6519;SDS011;3293;51.690;5.982;2023-02-13T18:45:42;33.87;;;21.63;;
6519;SDS011;3293;51.690;5.982;2023-02-13T18:50:44;29.97;;;21.40;;
6519;SDS011;3293;51.690;5.982;2023-02-13T18:55:44;30.47;;;21.70;;
6519;SDS011;3293;51.690;5.982;2023-02-13T19:00:44;32.23;;;20.40;;
6519;SDS011;3293;51.690;5.982;2023-02-13T19:05:44;37.47;;;21.77;;
6519;SDS011;3293;51.690;5.982;2023-02-13T19:10:44;29.37;;;20.37;;
6519;SDS011;3293;51.690;5.982;2023-02-13T19:15:44;32.63;;;19.00;;
6519;SDS011;3293;51.690;5.982;2023-02-13T19:20:44;29.40;;;19.87;;
6519;SDS011;3293;51.690;5.982;2023-02-13T19:25:44;29.60;;;19.53;;
6519;SDS011;3293;51.690;5.982;2023-02-13T19:30:44;28.03;;;18.90;;
6519;SDS011;3293;51.690;5.982;2023-02-13T19:35:54;29.63;;;20.40;;
6519;SDS011;3293;51.690;5.982;2023-02-13T19:40:55;30.83;;;20.53;;
6519;SDS011;3293;51.690;5.982;2023-02-13T19:46:05;31.53;;;20.90;;
6519;SDS011;3293;51.690;5.982;2023-02-13T19:51:13;31.63;;;19.67;;
6519;SDS011;3293;51.690;5.982;2023-02-13T19:56:16;32.47;;;19.87;;
6519;SDS011;3293;51.690;5.982;2023-02-13T20:01:17;34.20;;;20.67;;
6519;SDS011;3293;51.690;5.982;2023-02-13T20:06:26;28.77;;;20.93;;
6519;SDS011;3293;51.690;5.982;2023-02-13T20:11:30;29.80;;;20.60;;
6519;SDS011;3293;51.690;5.982;2023-02-13T20:16:31;31.07;;;21.37;;
6519;SDS011;3293;51.690;5.982;2023-02-13T20:21:34;33.23;;;21.53;;
6519;SDS011;3293;51.690;5.982;2023-02-13T20:26:35;29.43;;;20.43;;
6519;SDS011;3293;51.690;5.982;2023-02-13T20:31:35;30.97;;;21.00;;
6519;SDS011;3293;51.690;5.982;2023-02-13T20:36:37;32.10;;;19.93;;
6519;SDS011;3293;51.690;5.982;2023-02-13T20:41:38;31.30;;;21.13;;
6519;SDS011;3293;51.690;5.982;2023-02-13T20:46:38;31.23;;;20.40;;
6519;SDS011;3293;51.690;5.982;2023-02-13T20:51:39;32.97;;;20.77;;
6519;SDS011;3293;51.690;5.982;2023-02-13T20:56:39;30.43;;;19.87;;
6519;SDS011;3293;51.690;5.982;2023-02-13T21:01:39;30.80;;;20.27;;
6519;SDS011;3293;51.690;5.982;2023-02-13T21:06:40;33.97;;;20.93;;
6519;SDS011;3293;51.690;5.982;2023-02-13T21:11:41;32.00;;;21.20;;
6519;SDS011;3293;51.690;5.982;2023-02-13T21:16:42;33.70;;;20.77;;
6519;SDS011;3293;51.690;5.982;2023-02-13T21:21:44;34.33;;;20.43;;
6519;SDS011;3293;51.690;5.982;2023-02-13T21:26:45;29.27;;;20.73;;
6519;SDS011;3293;51.690;5.982;2023-02-13T21:31:48;30.90;;;21.83;;
6519;SDS011;3293;51.690;5.982;2023-02-13T21:36:49;33.73;;;22.07;;
6519;SDS011;3293;51.690;5.982;2023-02-13T21:41:49;29.40;;;20.30;;
6519;SDS011;3293;51.690;5.982;2023-02-13T21:46:49;30.37;;;20.27;;
6519;SDS011;3293;51.690;5.982;2023-02-13T21:51:49;30.43;;;20.37;;
6519;SDS011;3293;51.690;5.982;2023-02-13T21:56:49;29.27;;;19.43;;
6519;SDS011;3293;51.690;5.982;2023-02-13T22:01:49;27.33;;;19.30;;
6519;SDS011;3293;51.690;5.982;2023-02-13T22:06:50;30.70;;;20.67;;
6519;SDS011;3293;51.690;5.982;2023-02-13T22:11:51;26.53;;;19.63;;
6519;SDS011;3293;51.690;5.982;2023-02-13T22:16:52;30.20;;;20.70;;
6519;SDS011;3293;51.690;5.982;2023-02-13T22:21:52;32.93;;;19.43;;
6519;SDS011;3293;51.690;5.982;2023-02-13T22:26:53;30.17;;;20.10;;
6519;SDS011;3293;51.690;5.982;2023-02-13T22:31:53;29.43;;;20.93;;
6519;SDS011;3293;51.690;5.982;2023-02-13T22:36:53;30.33;;;20.47;;
6519;SDS011;3293;51.690;5.982;2023-02-13T22:41:54;33.57;;;21.37;;
6519;SDS011;3293;51.690;5.982;2023-02-13T22:46:54;31.37;;;20.57;;
6519;SDS011;3293;51.690;5.982;2023-02-13T22:51:54;31.33;;;21.77;;
6519;SDS011;3293;51.690;5.982;2023-02-13T22:56:54;31.47;;;20.97;;
6519;SDS011;3293;51.690;5.982;2023-02-13T23:01:54;32.90;;;20.57;;
6519;SDS011;3293;51.690;5.982;2023-02-13T23:06:55;33.13;;;20.63;;
6519;SDS011;3293;51.690;5.982;2023-02-13T23:11:55;31.40;;;19.73;;
6519;SDS011;3293;51.690;5.982;2023-02-13T23:17:14;31.27;;;20.03;;
6519;SDS011;3293;51.690;5.982;2023-02-13T23:22:33;30.53;;;19.70;;
6519;SDS011;3293;51.690;5.982;2023-02-13T23:27:34;28.27;;;18.97;;
6519;SDS011;3293;51.690;5.982;2023-02-13T23:32:34;29.40;;;19.30;;
6519;SDS011;3293;51.690;5.982;2023-02-13T23:37:35;30.63;;;20.63;;
6519;SDS011;3293;51.690;5.982;2023-02-13T23:42:35;35.33;;;20.37;;
6519;SDS011;3293;51.690;5.982;2023-02-13T23:47:36;26.47;;;18.37;;
6519;SDS011;3293;51.690;5.982;2023-02-13T23:52:36;29.23;;;18.17;;
6519;SDS011;3293;51.690;5.982;2023-02-13T23:57:36;28.03;;;18.23;;
